createdAt,value
2023-04-24T00:02:22.069Z,99273.54
2023-04-24T00:17:25.345Z,99255.66
2023-04-24T00:32:28.108Z,99239.04
2023-04-24T00:47:31.537Z,99221.69
2023-04-24T01:02:35.621Z,99204.64
2023-04-24T01:17:39.692Z,99207.83
2023-04-24T01:32:45.533Z,99191.52
2023-04-24T01:47:50.005Z,99188.04
2023-04-24T02:02:53.256Z,99178.40
2023-04-24T02:17:56.118Z,99170.41
2023-04-24T02:32:59.156Z,99166.63
2023-04-24T02:48:01.820Z,99152.01
2023-04-24T03:03:04.797Z,99125.91
2023-04-24T03:18:07.594Z,99113.21
2023-04-24T03:33:10.864Z,99104.28
2023-04-24T03:48:13.755Z,99119.27
2023-04-24T04:03:17.306Z,99131.97
2023-04-24T04:18:20.244Z,99134.14
2023-04-24T04:33:23.365Z,99135.36
2023-04-24T04:48:25.919Z,99130.83
2023-04-24T05:03:28.774Z,99127.48
2023-04-24T05:18:31.724Z,99130.64
2023-04-24T05:33:34.449Z,99128.35
2023-04-24T05:48:37.236Z,99127.95
2023-04-24T06:03:40.559Z,99139.69
2023-04-24T06:18:43.597Z,99143.20
2023-04-24T06:33:46.745Z,99147.55
2023-04-24T06:48:49.576Z,99145.77
2023-04-24T07:03:52.229Z,99150.06
2023-04-24T07:18:54.965Z,99147.97
2023-04-24T07:33:59.199Z,99151.71
2023-04-24T07:49:12.459Z,99150.41
2023-04-24T08:04:16.812Z,99150.27
2023-04-24T08:19:19.595Z,99148.40
2023-04-24T08:34:22.894Z,99160.71
2023-04-24T08:49:26.812Z,99175.73
2023-04-24T09:04:31.202Z,99168.79
2023-04-24T09:19:34.145Z,99167.10
2023-04-24T09:34:36.778Z,99164.48
2023-04-24T09:49:40.243Z,99161.14
2023-04-24T10:04:55.030Z,99150.27
2023-04-24T10:19:59.627Z,99130.23
2023-04-24T10:35:02.264Z,99129.93
2023-04-24T10:50:11.140Z,99123.58
2023-04-24T11:05:16.030Z,99137.68
2023-04-24T11:20:27.682Z,99140.88
2023-04-24T11:35:36.762Z,99135.09
2023-04-24T11:50:40.093Z,99136.10
2023-04-24T12:05:43.206Z,99134.22
2023-04-24T12:20:46.325Z,99127.86
2023-04-24T12:35:54.238Z,99121.58
2023-04-24T12:51:02.631Z,99117.70
2023-04-24T13:06:06.684Z,99111.02
2023-04-24T13:21:09.344Z,99099.14
2023-04-24T13:36:12.191Z,99094.72
2023-04-24T13:51:15.020Z,99097.96
2023-04-24T14:06:18.577Z,99097.83
2023-04-24T14:21:21.598Z,99096.92
2023-04-24T14:36:24.299Z,99099.64
2023-04-24T14:51:28.136Z,99105.23
2023-04-24T15:06:32.525Z,99108.52
2023-04-24T15:21:37.338Z,99110.24
2023-04-24T15:36:39.978Z,99123.52
2023-04-24T15:51:42.551Z,99131.45
2023-04-24T16:06:45.258Z,99139.15
2023-04-24T16:21:47.810Z,99144.30
2023-04-24T16:36:50.390Z,99144.97
2023-04-24T16:51:53.042Z,99147.44
2023-04-24T17:06:55.947Z,99141.56
2023-04-24T17:21:59.154Z,99144.39
2023-04-24T17:37:02.316Z,99148.86
2023-04-24T17:52:06.134Z,99138.84
2023-04-24T18:07:08.821Z,99165.94
2023-04-24T18:22:11.489Z,99177.16
2023-04-24T18:37:14.612Z,99220.35
2023-04-24T18:52:17.254Z,99230.20
2023-04-24T19:07:20.699Z,99238.05
2023-04-24T19:22:24.437Z,99235.61
2023-04-24T19:37:27.260Z,99224.25
2023-04-24T19:52:29.953Z,99217.64
2023-04-24T20:07:32.646Z,99213.08
2023-04-24T20:22:38.996Z,99221.15
2023-04-24T20:37:42.404Z,99231.59
2023-04-24T20:52:50.308Z,99234.71
2023-04-24T21:07:56.055Z,99240.56
2023-04-24T21:22:58.874Z,99243.15
2023-04-24T21:38:02.097Z,99255.39
2023-04-24T21:53:04.720Z,99264.92
2023-04-24T22:08:07.431Z,99275.04
2023-04-24T22:23:10.714Z,99276.69
2023-04-24T22:38:13.364Z,99283.35
2023-04-24T22:53:16.459Z,99292.90
2023-04-24T23:08:19.153Z,99301.86
2023-04-24T23:23:21.926Z,99314.77
2023-04-24T23:38:24.523Z,99318.88
2023-04-24T23:53:27.186Z,99313.52
